Terminal Aerodrome Forecast
Issued by NWS

Home | Current Version | Previous Version | Text Only | Print | Product List | Glossary On
Versions: 1 2 3 4 5 6 7 8 9 10 11 12 13 14 15 16 17 18 19 20
000
FTUS43 KDLH 130500
TAFHIB
TAF
KHIB 130533Z 1306/1406 12003KT 3SM BR OVC003
      TEMPO 1310/1314 2SM BR OVC001
     FM131400 33013G23KT P6SM OVC015
     FM131800 33015G25KT P6SM BKN050=

USA.gov is the U.S. government's official web portal to all federal, state and local government web resources and services.